Time;durP1;ratioP1;P1;durP2;ratioP2;P2;SDS_P1;SDS_P2;PMS_P1;PMS_P2;Temp;Humidity;BMP_temperature;BMP_pressure;BME280_temperature;BME280_humidity;BME280_pressure;Samples;Min_cycle;Max_cycle;Signal;HPM_P1;HPM_P2
2021/07/30 00:05:32;;;;;;;14.5;8.5;;;;;;;16.03;100;98219.39;;;;
2021/07/30 00:15:31;;;;;;;14.8;7.5;;;;;;;15.97;100;98215.34;;;;
2021/07/30 00:25:31;;;;;;;17.2;8.8;;;;;;;15.83;100;98199.47;;;;
2021/07/30 00:35:30;;;;;;;12.6;8.7;;;;;;;15.82;100;98214.22;;;;
2021/07/30 00:45:30;;;;;;;14.6;9;;;;;;;15.74;100;98207.02;;;;
2021/07/30 00:55:29;;;;;;;12.4;8.5;;;;;;;15.7;100;98213.5;;;;
2021/07/30 01:05:28;;;;;;;12.9;7.9;;;;;;;15.64;100;98204.03;;;;
2021/07/30 01:15:28;;;;;;;15.4;7.6;;;;;;;15.49;100;98211.81;;;;
2021/07/30 01:25:27;;;;;;;10.2;7.3;;;;;;;15.63;100;98205.16;;;;
2021/07/30 01:35:27;;;;;;;10.9;7.9;;;;;;;15.69;100;98201.84;;;;
2021/07/30 01:45:26;;;;;;;9.9;7.1;;;;;;;15.67;100;98200.62;;;;
2021/07/30 01:55:25;;;;;;;15.8;8.5;;;;;;;15.78;100;98201.67;;;;
2021/07/30 02:05:25;;;;;;;13.2;9.9;;;;;;;15.74;100;98201.59;;;;
2021/07/30 02:15:24;;;;;;;10.4;6.8;;;;;;;15.67;100;98189.75;;;;
2021/07/30 02:25:24;;;;;;;12.3;8.2;;;;;;;15.71;100;98188.7;;;;
2021/07/30 02:35:24;;;;;;;8.6;5.9;;;;;;;15.36;100;98179.62;;;;
2021/07/30 02:45:24;;;;;;;11.6;7;;;;;;;15.44;100;98184.9;;;;
2021/07/30 02:55:22;;;;;;;16.1;9.1;;;;;;;15.36;100;98185.05;;;;
2021/07/30 03:05:22;;;;;;;11;8.7;;;;;;;15.24;100;98185.89;;;;
2021/07/30 03:15:21;;;;;;;13.1;6.8;;;;;;;15.29;100;98187.58;;;;
2021/07/30 03:25:20;;;;;;;10.3;8.4;;;;;;;15.05;100;98183.85;;;;
2021/07/30 03:35:20;;;;;;;10.2;8.2;;;;;;;15.17;100;98185.7;;;;
2021/07/30 03:45:19;;;;;;;10.7;8;;;;;;;15.26;100;98190.98;;;;
2021/07/30 03:55:19;;;;;;;14.9;8.6;;;;;;;15.49;100;98197.44;;;;
2021/07/30 04:05:18;;;;;;;12.6;8.1;;;;;;;15.69;100;98195.64;;;;
2021/07/30 04:15:17;;;;;;;10.7;8.4;;;;;;;16.02;100;98199.56;;;;
2021/07/30 04:25:17;;;;;;;11.4;8.6;;;;;;;16.36;100;98206.17;;;;
2021/07/30 04:35:16;;;;;;;11.6;7.8;;;;;;;16.74;100;98207.41;;;;
2021/07/30 04:45:16;;;;;;;12.4;7.9;;;;;;;17.11;100;98214.03;;;;
2021/07/30 04:55:16;;;;;;;13.1;8.5;;;;;;;17.43;100;98209.17;;;;
2021/07/30 05:05:15;;;;;;;12;9.5;;;;;;;17.96;100;98204.68;;;;
2021/07/30 05:15:15;;;;;;;9.2;7.6;;;;;;;18.4;100;98207.69;;;;
2021/07/30 05:25:15;;;;;;;7.9;5.4;;;;;;;18.91;100;98200.64;;;;
2021/07/30 05:35:15;;;;;;;6.2;4.4;;;;;;;19.34;100;98201.91;;;;
2021/07/30 05:45:15;;;;;;;8.2;4.7;;;;;;;19.8;100;98202.39;;;;
2021/07/30 05:55:15;;;;;;;7.7;5.2;;;;;;;20.23;100;98216.42;;;;
2021/07/30 06:05:15;;;;;;;10;6.6;;;;;;;20.52;100;98232.69;;;;
2021/07/30 06:15:15;;;;;;;13.6;8.8;;;;;;;21;100;98241.55;;;;
2021/07/30 06:25:15;;;;;;;13.5;6.4;;;;;;;21.23;100;98244.05;;;;
2021/07/30 06:35:15;;;;;;;7.6;4.8;;;;;;;21.3;100;98246.81;;;;
2021/07/30 06:45:15;;;;;;;19.2;4.9;;;;;;;21.68;100;98230.85;;;;
2021/07/30 06:55:15;;;;;;;9.5;5;;;;;;;21.85;100;98238.33;;;;
2021/07/30 07:05:18;;;;;;;12.5;7.8;;;;;;;22.38;100;98238.38;;;;
2021/07/30 07:15:16;;;;;;;12.4;6.4;;;;;;;22.75;100;98233.23;;;;
2021/07/30 07:25:16;;;;;;;12;5.8;;;;;;;22.9;100;98221.03;;;;
2021/07/30 07:35:17;;;;;;;7.6;5;;;;;;;23.11;100;98222.13;;;;
2021/07/30 07:45:17;;;;;;;9.3;5.9;;;;;;;23.63;100;98221.11;;;;
2021/07/30 07:55:18;;;;;;;10.4;5.4;;;;;;;24.35;100;98211.92;;;;
2021/07/30 08:05:18;;;;;;;7.2;4.7;;;;;;;24.89;100;98212.95;;;;
2021/07/30 08:15:19;;;;;;;9.4;5.6;;;;;;;24.91;100;98199.56;;;;
2021/07/30 08:25:19;;;;;;;8.1;5.6;;;;;;;25.24;100;98203.47;;;;
2021/07/30 08:35:20;;;;;;;9.9;5.7;;;;;;;25.49;100;98201.16;;;;
2021/07/30 08:45:21;;;;;;;9.3;4.5;;;;;;;25.7;100;98200.1;;;;
2021/07/30 08:55:22;;;;;;;8.5;5.2;;;;;;;25.81;100;98192.45;;;;
2021/07/30 09:05:23;;;;;;;8.5;5.1;;;;;;;26.09;96.92383;98188.45;;;;
2021/07/30 09:15:24;;;;;;;7.2;4.6;;;;;;;26.18;100;98183.19;;;;
2021/07/30 09:25:35;;;;;;;6.8;4.3;;;;;;;26.27;96.20605;98164.09;;;;
2021/07/30 09:35:25;;;;;;;10.5;5.1;;;;;;;26.62;98.54785;98148.84;;;;
2021/07/30 09:45:32;;;;;;;6.2;3.4;;;;;;;26.25;96.49316;98129.78;;;;
2021/07/30 09:55:27;;;;;;;9.6;4.6;;;;;;;27.01;95.37305;98126.71;;;;
2021/07/30 10:05:28;;;;;;;8.4;5.1;;;;;;;27.35;92.19043;98117.29;;;;
2021/07/30 10:15:29;;;;;;;6.9;4.9;;;;;;;27.11;95.02148;98100.02;;;;
2021/07/30 10:25:30;;;;;;;6.4;3.3;;;;;;;27.34;89.25781;98093.59;;;;
2021/07/30 10:35:44;;;;;;;7.1;3.7;;;;;;;27.26;90.07129;98086.64;;;;
2021/07/30 10:45:32;;;;;;;8.5;4.3;;;;;;;27.57;90.76367;98081.59;;;;
2021/07/30 10:55:43;;;;;;;7.2;4.9;;;;;;;27.91;90.22461;98068.84;;;;
2021/07/30 11:05:35;;;;;;;6.3;2.9;;;;;;;27.89;79.67383;98051.89;;;;
2021/07/30 11:15:36;;;;;;;7.4;3.3;;;;;;;27.99;79.59766;98048.06;;;;
2021/07/30 11:25:38;;;;;;;7.5;3.8;;;;;;;27.84;75.26563;98052.41;;;;
2021/07/30 11:35:38;;;;;;;9.9;4;;;;;;;28.15;74.52832;98035.42;;;;
2021/07/30 11:45:39;;;;;;;9.4;4.3;;;;;;;28.31;74.53125;98033.36;;;;
2021/07/30 11:55:42;;;;;;;7;4.2;;;;;;;28.2;74.17285;98026.55;;;;
2021/07/30 12:05:41;;;;;;;5.7;4.2;;;;;;;28.45;74.2959;98021.09;;;;
2021/07/30 12:15:42;;;;;;;12.3;4.9;;;;;;;28.55;74.88672;98021.99;;;;
2021/07/30 12:25:45;;;;;;;5;3.4;;;;;;;28.65;76.35059;98005.04;;;;
2021/07/30 12:35:44;;;;;;;8.1;4.2;;;;;;;29.03;73.41309;97999.53;;;;
2021/07/30 12:45:47;;;;;;;6.7;4.4;;;;;;;28.98;72.75684;97997.33;;;;
2021/07/30 12:55:47;;;;;;;6.3;3.8;;;;;;;29.2;70.45801;97986.3;;;;
2021/07/30 13:05:49;;;;;;;6.4;3.7;;;;;;;29.23;72.59668;97975.09;;;;
2021/07/30 13:15:50;;;;;;;8.2;4.3;;;;;;;29.52;70.5791;97963.84;;;;
2021/07/30 13:25:50;;;;;;;7.2;4.1;;;;;;;29.88;76.35742;97955.86;;;;
2021/07/30 13:35:52;;;;;;;8;4.9;;;;;;;30.27;69.90332;97950.84;;;;
2021/07/30 13:45:53;;;;;;;7.8;4.2;;;;;;;30.01;68.1377;97941.89;;;;
2021/07/30 13:55:54;;;;;;;7.6;4.8;;;;;;;30.3;71.17285;97930.5;;;;
2021/07/30 14:05:56;;;;;;;7.7;3.9;;;;;;;30.64;66.84668;97922.05;;;;
2021/07/30 14:15:57;;;;;;;6.8;3.8;;;;;;;30.57;67.60547;97908.41;;;;
2021/07/30 14:25:58;;;;;;;11.4;4.9;;;;;;;29.99;66.79883;97908.2;;;;
2021/07/30 14:36:05;;;;;;;8.6;5;;;;;;;30.7;67.51953;97906.3;;;;
2021/07/30 14:46:03;;;;;;;7.5;4.4;;;;;;;30.55;68.47949;97894.17;;;;
2021/07/30 14:56:03;;;;;;;7.5;3.7;;;;;;;31.22;62.49414;97880.31;;;;
2021/07/30 15:06:05;;;;;;;6.9;3;;;;;;;31.38;53.49023;97888.36;;;;
2021/07/30 15:16:05;;;;;;;7.5;3.6;;;;;;;32.03;49.08008;97870.39;;;;
2021/07/30 15:26:07;;;;;;;8.5;2.9;;;;;;;34.15;42.28223;97876.57;;;;
2021/07/30 15:36:13;;;;;;;6.8;3.1;;;;;;;35.82;38.40332;97862.09;;;;
2021/07/30 15:46:11;;;;;;;7.4;2.6;;;;;;;36.46;38.19238;97870.06;;;;
2021/07/30 15:56:13;;;;;;;5.5;2.8;;;;;;;36.85;34.9043;97872.4;;;;
2021/07/30 16:06:15;;;;;;;5.7;3.1;;;;;;;36.89;33.76855;97867.31;;;;
2021/07/30 16:16:17;;;;;;;6.3;3.4;;;;;;;37.02;34.0332;97853.62;;;;
2021/07/30 16:26:21;;;;;;;12.1;3.2;;;;;;;33.57;40.60645;97848.48;;;;
2021/07/30 16:36:22;;;;;;;11.4;4.4;;;;;;;32.77;42.27539;97841.77;;;;
2021/07/30 16:46:24;;;;;;;8.6;4;;;;;;;33.51;47.16406;97844.83;;;;
2021/07/30 16:56:26;;;;;;;8.6;3.1;;;;;;;34.92;40.16113;97844.67;;;;
2021/07/30 17:06:30;;;;;;;6.5;4;;;;;;;32.99;44.77539;97837.91;;;;
2021/07/30 17:16:31;;;;;;;7.7;3.6;;;;;;;33.54;48.12793;97839.05;;;;
2021/07/30 17:26:31;;;;;;;6.3;3.8;;;;;;;31.74;51.82715;97834.67;;;;
2021/07/30 17:36:33;;;;;;;8.1;5.4;;;;;;;29.76;63.06445;97826.08;;;;
2021/07/30 17:46:34;;;;;;;8.1;5.3;;;;;;;28.61;67.32813;97829.66;;;;
2021/07/30 17:56:36;;;;;;;9.1;5.3;;;;;;;27.66;71.14941;97827.83;;;;
2021/07/30 18:06:37;;;;;;;10.5;5.3;;;;;;;26.66;80.19434;97831.6;;;;
2021/07/30 18:16:37;;;;;;;7.2;4.6;;;;;;;25.41;91.05469;97829.19;;;;
2021/07/30 18:26:38;;;;;;;6.4;4.1;;;;;;;25.09;84.10645;97837.3;;;;
2021/07/30 18:36:39;;;;;;;7.4;4.6;;;;;;;24.5;88.39844;97843.39;;;;
2021/07/30 18:46:39;;;;;;;18.2;4.8;;;;;;;24.02;92.32715;97847.19;;;;
2021/07/30 18:56:42;;;;;;;7.6;4.9;;;;;;;23.76;95.01563;97849.91;;;;
2021/07/30 19:06:40;;;;;;;8.2;5.3;;;;;;;23.52;98.62695;97849.02;;;;
2021/07/30 19:16:41;;;;;;;22.9;18.1;;;;;;;23.21;100;97853.66;;;;
2021/07/30 19:26:41;;;;;;;14.9;10.6;;;;;;;22.89;100;97853.95;;;;
2021/07/30 19:36:42;;;;;;;8.9;5.7;;;;;;;22.49;100;97860.16;;;;
2021/07/30 19:46:41;;;;;;;13.4;10.1;;;;;;;22.28;100;97849.31;;;;
2021/07/30 19:56:42;;;;;;;25.9;22.2;;;;;;;21.97;100;97849.08;;;;
2021/07/30 20:06:42;;;;;;;10;6.2;;;;;;;21.85;100;97843.25;;;;
2021/07/30 20:16:42;;;;;;;9.6;4.8;;;;;;;21.86;100;97842.86;;;;
2021/07/30 20:26:42;;;;;;;7.4;5.3;;;;;;;21.58;100;97829.28;;;;
2021/07/30 20:36:42;;;;;;;8.2;5.4;;;;;;;21.26;100;97834.08;;;;
2021/07/30 20:46:42;;;;;;;8;5.1;;;;;;;21.57;100;97828.48;;;;
2021/07/30 20:56:42;;;;;;;8.4;4.6;;;;;;;21.9;100;97827.17;;;;
2021/07/30 21:06:43;;;;;;;9.9;5.5;;;;;;;21.66;100;97822.56;;;;
2021/07/30 21:16:42;;;;;;;10.3;6.5;;;;;;;21.21;100;97818.05;;;;
2021/07/30 21:26:42;;;;;;;9.6;7;;;;;;;20.77;100;97821.22;;;;
2021/07/30 21:46:42;;;;;;;8.7;5.8;;;;;;;19.98;100;97803.97;;;;
2021/07/30 21:56:42;;;;;;;9.6;6.2;;;;;;;19.54;100;97808.93;;;;
2021/07/30 22:06:42;;;;;;;8.7;6.5;;;;;;;19.29;100;97811.52;;;;
2021/07/30 22:16:42;;;;;;;9;6.2;;;;;;;19.11;100;97813.38;;;;
2021/07/30 22:26:41;;;;;;;10.2;7.5;;;;;;;18.91;100;97823.8;;;;
2021/07/30 22:36:41;;;;;;;10.9;8.4;;;;;;;18.89;100;97820.65;;;;
2021/07/30 22:46:41;;;;;;;10.4;6;;;;;;;18.79;100;97817.84;;;;
2021/07/30 22:56:41;;;;;;;8.1;5.5;;;;;;;18.58;100;97827.45;;;;
2021/07/30 23:06:40;;;;;;;7.3;5.8;;;;;;;18.41;100;97838.19;;;;
2021/07/30 23:16:40;;;;;;;11.5;6.2;;;;;;;18.24;100;97836.88;;;;
2021/07/30 23:26:40;;;;;;;9.9;7.4;;;;;;;18.1;100;97825.83;;;;
2021/07/30 23:36:39;;;;;;;17.1;8.7;;;;;;;18.02;100;97835.88;;;;
2021/07/30 23:46:39;;;;;;;11.3;7.9;;;;;;;17.95;100;97838.53;;;;
2021/07/30 23:56:38;;;;;;;18.2;9.7;;;;;;;17.88;100;97830.27;;;;
